Catarman, Philippines
Current Conditions -  °F | °C
As of 11:00 AM on Thursday 23 Oct 2014 (Local Time) from RPVM Reporting Station
Broken Clouds Broken Clouds  
Wind Chill: 88°   Ceiling: 30000
Heat Index: 100°   Visibility: 6mi
Dew Point: 77°   Wind: 15mph
Humidity: 70%   Direction: 30°NNE
Pressure: 29.85"   Gusts: NA
Location:  12.5°N, 124.64°E
Report Text: RPVM 230300Z 03013KT 9999 SCT018CB BKN300 31/25 Q1011 RMK A2985 CB N NW- SW AND SSE
Loading
Personal Weather Stations






























Interactive Weather Map
Tropical Storm Tracking
New forecast layout! Learn more

10-Day Weather Forecast

Advertisements
Track Severe Weather on mobile